sensor_id;sensor_type;location;lat;lon;timestamp;P1;durP1;ratioP1;P2;durP2;ratioP2
62709;SDS011;48770;51.624;5.886;2023-04-01T00:00:14;0.25;;;0.10;;
62709;SDS011;48770;51.624;5.886;2023-04-01T00:02:40;0.70;;;0.13;;
62709;SDS011;48770;51.624;5.886;2023-04-01T00:05:05;0.40;;;0.20;;
62709;SDS011;48770;51.624;5.886;2023-04-01T00:07:31;0.55;;;0.20;;
62709;SDS011;48770;51.624;5.886;2023-04-01T00:09:57;0.17;;;0.08;;
62709;SDS011;48770;51.624;5.886;2023-04-01T00:12:23;0.22;;;0.03;;
62709;SDS011;48770;51.624;5.886;2023-04-01T00:14:50;0.50;;;0.10;;
62709;SDS011;48770;51.624;5.886;2023-04-01T00:17:15;0.45;;;0.20;;
62709;SDS011;48770;51.624;5.886;2023-04-01T00:19:40;0.57;;;0.20;;
62709;SDS011;48770;51.624;5.886;2023-04-01T00:22:06;0.82;;;0.10;;
62709;SDS011;48770;51.624;5.886;2023-04-01T00:24:34;0.68;;;0.10;;
62709;SDS011;48770;51.624;5.886;2023-04-01T00:26:59;0.95;;;0.08;;
62709;SDS011;48770;51.624;5.886;2023-04-01T00:29:24;0.30;;;0.10;;
62709;SDS011;48770;51.624;5.886;2023-04-01T00:31:54;0.50;;;0.10;;
62709;SDS011;48770;51.624;5.886;2023-04-01T00:34:19;0.20;;;0.10;;
62709;SDS011;48770;51.624;5.886;2023-04-01T00:36:45;0.35;;;0.10;;
62709;SDS011;48770;51.624;5.886;2023-04-01T00:39:10;0.50;;;0.10;;
62709;SDS011;48770;51.624;5.886;2023-04-01T00:41:36;0.43;;;0.05;;
62709;SDS011;48770;51.624;5.886;2023-04-01T00:44:20;0.28;;;0.10;;
62709;SDS011;48770;51.624;5.886;2023-04-01T00:46:48;0.65;;;0.20;;
62709;SDS011;48770;51.624;5.886;2023-04-01T00:49:14;0.43;;;0.20;;
62709;SDS011;48770;51.624;5.886;2023-04-01T00:51:42;0.30;;;0.10;;
62709;SDS011;48770;51.624;5.886;2023-04-01T00:54:11;0.00;;;0.00;;
62709;SDS011;48770;51.624;5.886;2023-04-01T00:56:39;0.40;;;0.30;;
62709;SDS011;48770;51.624;5.886;2023-04-01T00:59:16;0.45;;;0.10;;
62709;SDS011;48770;51.624;5.886;2023-04-01T01:01:54;0.32;;;0.10;;
62709;SDS011;48770;51.624;5.886;2023-04-01T01:04:24;0.50;;;0.10;;
62709;SDS011;48770;51.624;5.886;2023-04-01T01:07:08;1.05;;;0.10;;
62709;SDS011;48770;51.624;5.886;2023-04-01T01:15:30;0.28;;;0.20;;
62709;SDS011;48770;51.624;5.886;2023-04-01T01:18:09;0.65;;;0.20;;
62709;SDS011;48770;51.624;5.886;2023-04-01T01:23:28;0.20;;;0.10;;
62709;SDS011;48770;51.624;5.886;2023-04-01T01:32:16;0.20;;;0.00;;
62709;SDS011;48770;51.624;5.886;2023-04-01T01:37:38;0.45;;;0.20;;
62709;SDS011;48770;51.624;5.886;2023-04-01T01:40:07;0.50;;;0.10;;
62709;SDS011;48770;51.624;5.886;2023-04-01T01:42:37;0.52;;;0.10;;
62709;SDS011;48770;51.624;5.886;2023-04-01T01:45:05;0.10;;;0.00;;
62709;SDS011;48770;51.624;5.886;2023-04-01T01:47:33;0.40;;;0.10;;
62709;SDS011;48770;51.624;5.886;2023-04-01T01:50:00;0.05;;;0.05;;
62709;SDS011;48770;51.624;5.886;2023-04-01T01:52:28;0.20;;;0.10;;
62709;SDS011;48770;51.624;5.886;2023-04-01T01:54:54;0.10;;;0.10;;
62709;SDS011;48770;51.624;5.886;2023-04-01T01:57:34;0.05;;;0.00;;
62709;SDS011;48770;51.624;5.886;2023-04-01T02:00:04;0.45;;;0.10;;
62709;SDS011;48770;51.624;5.886;2023-04-01T02:02:44;0.30;;;0.08;;
62709;SDS011;48770;51.624;5.886;2023-04-01T02:05:14;0.20;;;0.10;;
62709;SDS011;48770;51.624;5.886;2023-04-01T02:07:44;0.10;;;0.00;;
62709;SDS011;48770;51.624;5.886;2023-04-01T02:10:14;0.08;;;0.08;;
62709;SDS011;48770;51.624;5.886;2023-04-01T02:12:40;0.10;;;0.00;;
62709;SDS011;48770;51.624;5.886;2023-04-01T02:15:09;0.30;;;0.10;;
62709;SDS011;48770;51.624;5.886;2023-04-01T02:17:39;0.10;;;0.10;;
62709;SDS011;48770;51.624;5.886;2023-04-01T02:20:10;0.57;;;0.10;;
62709;SDS011;48770;51.624;5.886;2023-04-01T02:22:43;0.17;;;0.10;;
62709;SDS011;48770;51.624;5.886;2023-04-01T02:25:13;0.20;;;0.10;;
62709;SDS011;48770;51.624;5.886;2023-04-01T02:27:43;0.50;;;0.10;;
62709;SDS011;48770;51.624;5.886;2023-04-01T02:30:10;0.25;;;0.10;;
62709;SDS011;48770;51.624;5.886;2023-04-01T02:32:36;0.10;;;0.00;;
62709;SDS011;48770;51.624;5.886;2023-04-01T02:35:05;0.10;;;0.00;;
62709;SDS011;48770;51.624;5.886;2023-04-01T02:37:34;0.13;;;0.05;;
62709;SDS011;48770;51.624;5.886;2023-04-01T02:40:03;0.10;;;0.10;;
62709;SDS011;48770;51.624;5.886;2023-04-01T02:42:34;0.68;;;0.25;;
62709;SDS011;48770;51.624;5.886;2023-04-01T02:45:00;0.00;;;0.00;;
62709;SDS011;48770;51.624;5.886;2023-04-01T02:47:26;0.10;;;0.10;;
62709;SDS011;48770;51.624;5.886;2023-04-01T02:49:51;0.35;;;0.00;;
62709;SDS011;48770;51.624;5.886;2023-04-01T02:52:22;0.20;;;0.10;;
62709;SDS011;48770;51.624;5.886;2023-04-01T02:54:48;0.38;;;0.00;;
62709;SDS011;48770;51.624;5.886;2023-04-01T02:57:13;0.37;;;0.10;;
62709;SDS011;48770;51.624;5.886;2023-04-01T02:59:39;0.13;;;0.10;;
62709;SDS011;48770;51.624;5.886;2023-04-01T03:02:04;0.05;;;0.00;;
62709;SDS011;48770;51.624;5.886;2023-04-01T03:04:29;0.10;;;0.00;;
62709;SDS011;48770;51.624;5.886;2023-04-01T03:06:55;0.10;;;0.00;;
62709;SDS011;48770;51.624;5.886;2023-04-01T03:09:20;0.10;;;0.00;;
62709;SDS011;48770;51.624;5.886;2023-04-01T03:11:45;0.00;;;0.00;;
62709;SDS011;48770;51.624;5.886;2023-04-01T03:14:11;0.10;;;0.00;;
62709;SDS011;48770;51.624;5.886;2023-04-01T03:16:36;0.03;;;0.00;;
62709;SDS011;48770;51.624;5.886;2023-04-01T03:19:01;0.20;;;0.10;;
62709;SDS011;48770;51.624;5.886;2023-04-01T03:21:27;0.00;;;0.00;;
62709;SDS011;48770;51.624;5.886;2023-04-01T03:23:52;0.20;;;0.00;;
62709;SDS011;48770;51.624;5.886;2023-04-01T03:26:18;0.20;;;0.10;;
62709;SDS011;48770;51.624;5.886;2023-04-01T03:28:43;0.22;;;0.10;;
62709;SDS011;48770;51.624;5.886;2023-04-01T03:31:09;0.15;;;0.08;;
62709;SDS011;48770;51.624;5.886;2023-04-01T03:33:35;0.10;;;0.05;;
62709;SDS011;48770;51.624;5.886;2023-04-01T03:36:00;0.10;;;0.00;;
62709;SDS011;48770;51.624;5.886;2023-04-01T03:38:26;0.22;;;0.00;;
62709;SDS011;48770;51.624;5.886;2023-04-01T03:40:51;0.20;;;0.00;;
62709;SDS011;48770;51.624;5.886;2023-04-01T03:43:16;0.10;;;0.10;;
62709;SDS011;48770;51.624;5.886;2023-04-01T03:45:45;0.10;;;0.00;;
62709;SDS011;48770;51.624;5.886;2023-04-01T03:48:12;0.20;;;0.10;;
62709;SDS011;48770;51.624;5.886;2023-04-01T03:50:37;0.22;;;0.10;;
62709;SDS011;48770;51.624;5.886;2023-04-01T03:53:02;0.10;;;0.00;;
62709;SDS011;48770;51.624;5.886;2023-04-01T03:55:28;0.10;;;0.10;;
62709;SDS011;48770;51.624;5.886;2023-04-01T03:57:53;0.00;;;0.00;;
62709;SDS011;48770;51.624;5.886;2023-04-01T04:00:18;0.63;;;0.03;;
62709;SDS011;48770;51.624;5.886;2023-04-01T04:02:44;0.15;;;0.08;;
62709;SDS011;48770;51.624;5.886;2023-04-01T04:05:10;0.08;;;0.03;;
62709;SDS011;48770;51.624;5.886;2023-04-01T04:07:35;0.10;;;0.10;;
62709;SDS011;48770;51.624;5.886;2023-04-01T04:10:01;0.08;;;0.08;;
62709;SDS011;48770;51.624;5.886;2023-04-01T04:12:26;0.35;;;0.10;;
62709;SDS011;48770;51.624;5.886;2023-04-01T04:14:51;0.20;;;0.10;;
62709;SDS011;48770;51.624;5.886;2023-04-01T04:17:16;0.13;;;0.00;;
62709;SDS011;48770;51.624;5.886;2023-04-01T04:19:42;0.10;;;0.03;;
62709;SDS011;48770;51.624;5.886;2023-04-01T04:22:08;0.10;;;0.00;;
62709;SDS011;48770;51.624;5.886;2023-04-01T04:24:36;0.08;;;0.00;;
62709;SDS011;48770;51.624;5.886;2023-04-01T04:27:02;0.17;;;0.10;;
62709;SDS011;48770;51.624;5.886;2023-04-01T04:29:28;0.00;;;0.00;;
62709;SDS011;48770;51.624;5.886;2023-04-01T04:31:54;0.30;;;0.00;;
62709;SDS011;48770;51.624;5.886;2023-04-01T04:34:19;0.38;;;0.10;;
62709;SDS011;48770;51.624;5.886;2023-04-01T04:36:44;0.10;;;0.00;;
62709;SDS011;48770;51.624;5.886;2023-04-01T04:39:10;0.00;;;0.00;;
62709;SDS011;48770;51.624;5.886;2023-04-01T04:41:37;0.10;;;0.10;;
62709;SDS011;48770;51.624;5.886;2023-04-01T04:44:02;0.32;;;0.20;;
62709;SDS011;48770;51.624;5.886;2023-04-01T04:46:28;0.10;;;0.10;;
62709;SDS011;48770;51.624;5.886;2023-04-01T04:48:53;0.05;;;0.00;;
62709;SDS011;48770;51.624;5.886;2023-04-01T04:51:19;0.38;;;0.10;;
62709;SDS011;48770;51.624;5.886;2023-04-01T04:53:45;0.20;;;0.10;;
62709;SDS011;48770;51.624;5.886;2023-04-01T04:56:11;0.00;;;0.00;;
62709;SDS011;48770;51.624;5.886;2023-04-01T04:58:37;0.00;;;0.00;;
62709;SDS011;48770;51.624;5.886;2023-04-01T05:01:07;0.10;;;0.10;;
62709;SDS011;48770;51.624;5.886;2023-04-01T05:03:35;0.00;;;0.00;;
62709;SDS011;48770;51.624;5.886;2023-04-01T05:06:00;0.85;;;0.10;;
62709;SDS011;48770;51.624;5.886;2023-04-01T05:08:26;0.03;;;0.00;;
62709;SDS011;48770;51.624;5.886;2023-04-01T05:10:51;0.23;;;0.00;;
62709;SDS011;48770;51.624;5.886;2023-04-01T05:13:16;0.00;;;0.00;;
62709;SDS011;48770;51.624;5.886;2023-04-01T05:15:42;0.03;;;0.03;;
62709;SDS011;48770;51.624;5.886;2023-04-01T05:18:07;0.43;;;0.00;;
62709;SDS011;48770;51.624;5.886;2023-04-01T05:20:32;0.05;;;0.00;;
62709;SDS011;48770;51.624;5.886;2023-04-01T05:22:58;0.00;;;0.00;;
62709;SDS011;48770;51.624;5.886;2023-04-01T05:25:24;0.10;;;0.00;;
62709;SDS011;48770;51.624;5.886;2023-04-01T05:27:50;0.08;;;0.00;;
62709;SDS011;48770;51.624;5.886;2023-04-01T05:30:15;0.00;;;0.00;;
62709;SDS011;48770;51.624;5.886;2023-04-01T05:32:41;0.00;;;0.00;;
62709;SDS011;48770;51.624;5.886;2023-04-01T05:35:06;0.10;;;0.00;;
62709;SDS011;48770;51.624;5.886;2023-04-01T05:37:33;0.00;;;0.00;;
62709;SDS011;48770;51.624;5.886;2023-04-01T05:39:59;0.10;;;0.00;;
62709;SDS011;48770;51.624;5.886;2023-04-01T05:42:24;0.00;;;0.00;;
62709;SDS011;48770;51.624;5.886;2023-04-01T05:44:50;0.10;;;0.03;;
62709;SDS011;48770;51.624;5.886;2023-04-01T05:47:15;0.40;;;0.10;;
62709;SDS011;48770;51.624;5.886;2023-04-01T05:49:40;0.00;;;0.00;;
62709;SDS011;48770;51.624;5.886;2023-04-01T05:52:06;0.00;;;0.00;;
62709;SDS011;48770;51.624;5.886;2023-04-01T05:54:31;0.00;;;0.00;;
62709;SDS011;48770;51.624;5.886;2023-04-01T05:56:56;0.10;;;0.10;;
62709;SDS011;48770;51.624;5.886;2023-04-01T05:59:22;0.10;;;0.00;;
62709;SDS011;48770;51.624;5.886;2023-04-01T06:01:47;0.00;;;0.00;;
62709;SDS011;48770;51.624;5.886;2023-04-01T06:04:13;0.10;;;0.00;;
62709;SDS011;48770;51.624;5.886;2023-04-01T06:06:41;0.10;;;0.00;;
62709;SDS011;48770;51.624;5.886;2023-04-01T06:09:19;0.00;;;0.00;;
62709;SDS011;48770;51.624;5.886;2023-04-01T06:14:51;0.20;;;0.00;;
62709;SDS011;48770;51.624;5.886;2023-04-01T06:23:13;0.00;;;0.00;;
62709;SDS011;48770;51.624;5.886;2023-04-01T06:26:11;0.00;;;0.00;;
62709;SDS011;48770;51.624;5.886;2023-04-01T06:29:33;0.47;;;0.00;;
62709;SDS011;48770;51.624;5.886;2023-04-01T06:45:37;0.25;;;0.10;;
62709;SDS011;48770;51.624;5.886;2023-04-01T06:48:10;0.10;;;0.00;;
62709;SDS011;48770;51.624;5.886;2023-04-01T06:56:29;0.10;;;0.05;;
62709;SDS011;48770;51.624;5.886;2023-04-01T06:58:58;0.10;;;0.00;;
62709;SDS011;48770;51.624;5.886;2023-04-01T07:01:32;0.47;;;0.10;;
62709;SDS011;48770;51.624;5.886;2023-04-01T07:04:05;0.28;;;0.00;;
62709;SDS011;48770;51.624;5.886;2023-04-01T07:06:39;0.10;;;0.10;;
62709;SDS011;48770;51.624;5.886;2023-04-01T07:09:19;0.10;;;0.10;;
62709;SDS011;48770;51.624;5.886;2023-04-01T07:11:47;0.13;;;0.08;;
62709;SDS011;48770;51.624;5.886;2023-04-01T07:14:15;0.00;;;0.00;;
62709;SDS011;48770;51.624;5.886;2023-04-01T07:16:47;0.20;;;0.10;;
62709;SDS011;48770;51.624;5.886;2023-04-01T07:19:29;0.00;;;0.00;;
62709;SDS011;48770;51.624;5.886;2023-04-01T07:22:01;0.45;;;0.10;;
62709;SDS011;48770;51.624;5.886;2023-04-01T07:24:34;0.20;;;0.10;;
62709;SDS011;48770;51.624;5.886;2023-04-01T07:27:03;0.45;;;0.05;;
62709;SDS011;48770;51.624;5.886;2023-04-01T07:29:33;0.10;;;0.00;;
62709;SDS011;48770;51.624;5.886;2023-04-01T07:34:25;0.30;;;0.10;;
62709;SDS011;48770;51.624;5.886;2023-04-01T07:37:11;0.22;;;0.10;;
62709;SDS011;48770;51.624;5.886;2023-04-01T07:51:12;0.80;;;0.05;;
62709;SDS011;48770;51.624;5.886;2023-04-01T07:56:35;0.32;;;0.10;;
62709;SDS011;48770;51.624;5.886;2023-04-01T08:05:18;0.10;;;0.10;;
62709;SDS011;48770;51.624;5.886;2023-04-01T08:08:08;0.32;;;0.00;;
62709;SDS011;48770;51.624;5.886;2023-04-01T08:10:47;1.75;;;0.28;;
62709;SDS011;48770;51.624;5.886;2023-04-01T08:19:01;0.10;;;0.10;;
62709;SDS011;48770;51.624;5.886;2023-04-01T08:21:46;0.30;;;0.13;;
62709;SDS011;48770;51.624;5.886;2023-04-01T08:24:27;0.30;;;0.28;;
62709;SDS011;48770;51.624;5.886;2023-04-01T08:26:59;0.28;;;0.00;;
62709;SDS011;48770;51.624;5.886;2023-04-01T08:32:17;0.10;;;0.10;;
62709;SDS011;48770;51.624;5.886;2023-04-01T08:34:50;0.47;;;0.10;;
62709;SDS011;48770;51.624;5.886;2023-04-01T08:37:24;0.10;;;0.10;;
62709;SDS011;48770;51.624;5.886;2023-04-01T08:54:09;0.20;;;0.10;;
62709;SDS011;48770;51.624;5.886;2023-04-01T08:56:57;0.30;;;0.20;;
62709;SDS011;48770;51.624;5.886;2023-04-01T08:59:37;0.10;;;0.10;;
62709;SDS011;48770;51.624;5.886;2023-04-01T09:26:44;0.13;;;0.00;;
62709;SDS011;48770;51.624;5.886;2023-04-01T09:29:30;0.10;;;0.10;;
62709;SDS011;48770;51.624;5.886;2023-04-01T09:53:58;0.10;;;0.10;;
62709;SDS011;48770;51.624;5.886;2023-04-01T10:07:52;0.20;;;0.20;;
62709;SDS011;48770;51.624;5.886;2023-04-01T10:25:14;0.47;;;0.20;;
62709;SDS011;48770;51.624;5.886;2023-04-01T10:31:06;0.10;;;0.10;;
62709;SDS011;48770;51.624;5.886;2023-04-01T10:33:58;0.55;;;0.10;;
62709;SDS011;48770;51.624;5.886;2023-04-01T10:40:12;0.20;;;0.20;;
62709;SDS011;48770;51.624;5.886;2023-04-01T10:48:22;0.35;;;0.10;;
62709;SDS011;48770;51.624;5.886;2023-04-01T10:51:10;0.30;;;0.20;;
62709;SDS011;48770;51.624;5.886;2023-04-01T10:59:32;0.28;;;0.20;;
62709;SDS011;48770;51.624;5.886;2023-04-01T11:11:21;0.10;;;0.10;;
62709;SDS011;48770;51.624;5.886;2023-04-01T11:22:07;0.20;;;0.20;;
62709;SDS011;48770;51.624;5.886;2023-04-01T11:30:19;0.20;;;0.10;;
62709;SDS011;48770;51.624;5.886;2023-04-01T11:32:51;0.32;;;0.20;;
62709;SDS011;48770;51.624;5.886;2023-04-01T11:35:32;0.35;;;0.20;;
62709;SDS011;48770;51.624;5.886;2023-04-01T11:41:14;0.20;;;0.20;;
62709;SDS011;48770;51.624;5.886;2023-04-01T11:46:19;0.38;;;0.10;;
62709;SDS011;48770;51.624;5.886;2023-04-01T12:05:38;0.13;;;0.10;;
62709;SDS011;48770;51.624;5.886;2023-04-01T12:10:21;0.20;;;0.10;;
62709;SDS011;48770;51.624;5.886;2023-04-01T12:15:36;0.20;;;0.10;;
62709;SDS011;48770;51.624;5.886;2023-04-01T12:18:25;0.10;;;0.10;;
62709;SDS011;48770;51.624;5.886;2023-04-01T12:24:03;0.03;;;0.03;;
62709;SDS011;48770;51.624;5.886;2023-04-01T12:26:43;0.10;;;0.10;;
62709;SDS011;48770;51.624;5.886;2023-04-01T12:35:14;0.20;;;0.10;;
62709;SDS011;48770;51.624;5.886;2023-04-01T12:43:26;0.20;;;0.20;;
62709;SDS011;48770;51.624;5.886;2023-04-01T12:46:14;0.10;;;0.10;;
62709;SDS011;48770;51.624;5.886;2023-04-01T13:21:15;0.20;;;0.10;;
62709;SDS011;48770;51.624;5.886;2023-04-01T13:28:53;0.50;;;0.10;;
62709;SDS011;48770;51.624;5.886;2023-04-01T13:31:37;0.30;;;0.10;;
62709;SDS011;48770;51.624;5.886;2023-04-01T13:34:28;0.30;;;0.10;;
62709;SDS011;48770;51.624;5.886;2023-04-01T13:40:11;0.17;;;0.08;;
62709;SDS011;48770;51.624;5.886;2023-04-01T13:42:50;0.40;;;0.10;;
62709;SDS011;48770;51.624;5.886;2023-04-01T13:45:26;0.20;;;0.10;;
62709;SDS011;48770;51.624;5.886;2023-04-01T13:53:44;0.13;;;0.10;;
62709;SDS011;48770;51.624;5.886;2023-04-01T14:05:00;0.13;;;0.10;;
62709;SDS011;48770;51.624;5.886;2023-04-01T14:15:49;0.08;;;0.08;;
62709;SDS011;48770;51.624;5.886;2023-04-01T14:18:53;0.00;;;0.00;;
62709;SDS011;48770;51.624;5.886;2023-04-01T14:21:35;0.10;;;0.10;;
62709;SDS011;48770;51.624;5.886;2023-04-01T14:24:20;0.10;;;0.05;;
62709;SDS011;48770;51.624;5.886;2023-04-01T14:38:21;0.10;;;0.10;;
62709;SDS011;48770;51.624;5.886;2023-04-01T14:44:04;0.50;;;0.40;;
62709;SDS011;48770;51.624;5.886;2023-04-01T14:46:47;0.20;;;0.10;;
62709;SDS011;48770;51.624;5.886;2023-04-01T14:50:05;0.00;;;0.00;;
62709;SDS011;48770;51.624;5.886;2023-04-01T14:52:31;0.10;;;0.10;;
62709;SDS011;48770;51.624;5.886;2023-04-01T14:55:00;0.10;;;0.10;;
62709;SDS011;48770;51.624;5.886;2023-04-01T14:57:29;0.20;;;0.20;;
62709;SDS011;48770;51.624;5.886;2023-04-01T15:02:42;0.40;;;0.20;;
62709;SDS011;48770;51.624;5.886;2023-04-01T15:14:01;0.10;;;0.10;;
62709;SDS011;48770;51.624;5.886;2023-04-01T15:16:59;0.22;;;0.10;;
62709;SDS011;48770;51.624;5.886;2023-04-01T15:28:10;0.15;;;0.15;;
62709;SDS011;48770;51.624;5.886;2023-04-01T15:30:47;0.20;;;0.10;;
62709;SDS011;48770;51.624;5.886;2023-04-01T15:36:53;0.25;;;0.20;;
62709;SDS011;48770;51.624;5.886;2023-04-01T15:42:11;0.10;;;0.10;;
62709;SDS011;48770;51.624;5.886;2023-04-01T15:47:32;0.10;;;0.10;;
62709;SDS011;48770;51.624;5.886;2023-04-01T15:50:06;0.03;;;0.03;;
62709;SDS011;48770;51.624;5.886;2023-04-01T16:03:54;0.10;;;0.10;;
62709;SDS011;48770;51.624;5.886;2023-04-01T16:06:34;0.20;;;0.13;;
62709;SDS011;48770;51.624;5.886;2023-04-01T16:12:07;0.28;;;0.20;;
62709;SDS011;48770;51.624;5.886;2023-04-01T16:23:01;0.60;;;0.22;;
62709;SDS011;48770;51.624;5.886;2023-04-01T16:25:39;0.20;;;0.20;;
62709;SDS011;48770;51.624;5.886;2023-04-01T16:30:49;0.43;;;0.20;;
62709;SDS011;48770;51.624;5.886;2023-04-01T16:33:35;0.32;;;0.20;;
62709;SDS011;48770;51.624;5.886;2023-04-01T16:36:11;0.20;;;0.15;;
62709;SDS011;48770;51.624;5.886;2023-04-01T16:38:47;0.30;;;0.13;;
62709;SDS011;48770;51.624;5.886;2023-04-01T16:41:24;0.20;;;0.13;;
62709;SDS011;48770;51.624;5.886;2023-04-01T16:43:56;0.65;;;0.20;;
62709;SDS011;48770;51.624;5.886;2023-04-01T16:46:39;0.20;;;0.10;;
62709;SDS011;48770;51.624;5.886;2023-04-01T16:56:50;0.30;;;0.10;;
62709;SDS011;48770;51.624;5.886;2023-04-01T16:59:29;0.30;;;0.15;;
62709;SDS011;48770;51.624;5.886;2023-04-01T17:04:37;1.05;;;0.30;;
62709;SDS011;48770;51.624;5.886;2023-04-01T17:18:11;0.52;;;0.10;;
62709;SDS011;48770;51.624;5.886;2023-04-01T17:20:48;0.32;;;0.10;;
62709;SDS011;48770;51.624;5.886;2023-04-01T17:26:26;0.30;;;0.20;;
62709;SDS011;48770;51.624;5.886;2023-04-01T17:29:05;0.20;;;0.20;;
62709;SDS011;48770;51.624;5.886;2023-04-01T17:34:42;0.28;;;0.10;;
62709;SDS011;48770;51.624;5.886;2023-04-01T17:40:26;1.40;;;0.20;;
62709;SDS011;48770;51.624;5.886;2023-04-01T17:59:35;0.20;;;0.10;;
62709;SDS011;48770;51.624;5.886;2023-04-01T18:04:37;0.20;;;0.20;;
62709;SDS011;48770;51.624;5.886;2023-04-01T18:09:51;0.13;;;0.13;;
62709;SDS011;48770;51.624;5.886;2023-04-01T18:12:21;0.13;;;0.13;;
62709;SDS011;48770;51.624;5.886;2023-04-01T18:21:14;0.15;;;0.10;;
62709;SDS011;48770;51.624;5.886;2023-04-01T18:24:16;0.10;;;0.10;;
62709;SDS011;48770;51.624;5.886;2023-04-01T18:27:36;0.65;;;0.28;;
62709;SDS011;48770;51.624;5.886;2023-04-01T18:29:40;0.10;;;0.10;;
62709;SDS011;48770;51.624;5.886;2023-04-01T18:34:57;0.10;;;0.10;;
62709;SDS011;48770;51.624;5.886;2023-04-01T18:37:27;0.20;;;0.10;;
62709;SDS011;48770;51.624;5.886;2023-04-01T18:40:04;0.17;;;0.10;;
62709;SDS011;48770;51.624;5.886;2023-04-01T18:48:33;0.50;;;0.10;;
62709;SDS011;48770;51.624;5.886;2023-04-01T18:51:26;0.22;;;0.10;;
62709;SDS011;48770;51.624;5.886;2023-04-01T18:54:47;0.30;;;0.22;;
62709;SDS011;48770;51.624;5.886;2023-04-01T18:57:14;0.10;;;0.10;;
62709;SDS011;48770;51.624;5.886;2023-04-01T18:59:45;0.10;;;0.10;;
62709;SDS011;48770;51.624;5.886;2023-04-01T19:10:55;2.30;;;0.30;;
62709;SDS011;48770;51.624;5.886;2023-04-01T19:19:31;0.47;;;0.30;;
62709;SDS011;48770;51.624;5.886;2023-04-01T19:22:18;0.90;;;0.50;;
62709;SDS011;48770;51.624;5.886;2023-04-01T19:27:50;0.82;;;0.40;;
62709;SDS011;48770;51.624;5.886;2023-04-01T19:35:40;0.75;;;0.65;;
62709;SDS011;48770;51.624;5.886;2023-04-01T19:41:24;0.68;;;0.60;;
62709;SDS011;48770;51.624;5.886;2023-04-01T19:46:56;0.70;;;0.50;;
62709;SDS011;48770;51.624;5.886;2023-04-01T19:52:35;1.45;;;0.70;;
62709;SDS011;48770;51.624;5.886;2023-04-01T19:55:22;1.17;;;0.50;;
62709;SDS011;48770;51.624;5.886;2023-04-01T19:58:13;1.35;;;0.60;;
62709;SDS011;48770;51.624;5.886;2023-04-01T20:00:44;1.45;;;0.60;;
62709;SDS011;48770;51.624;5.886;2023-04-01T20:03:33;1.15;;;0.60;;
62709;SDS011;48770;51.624;5.886;2023-04-01T20:06:11;1.02;;;0.68;;
62709;SDS011;48770;51.624;5.886;2023-04-01T20:14:45;0.73;;;0.52;;
62709;SDS011;48770;51.624;5.886;2023-04-01T20:27:53;0.65;;;0.50;;
62709;SDS011;48770;51.624;5.886;2023-04-01T20:33:20;0.80;;;0.63;;
62709;SDS011;48770;51.624;5.886;2023-04-01T20:36:03;1.33;;;1.05;;
62709;SDS011;48770;51.624;5.886;2023-04-01T20:52:47;0.95;;;0.55;;
62709;SDS011;48770;51.624;5.886;2023-04-01T20:55:22;0.60;;;0.50;;
62709;SDS011;48770;51.624;5.886;2023-04-01T20:58:13;0.70;;;0.47;;
62709;SDS011;48770;51.624;5.886;2023-04-01T21:03:44;0.80;;;0.40;;
62709;SDS011;48770;51.624;5.886;2023-04-01T21:09:13;0.80;;;0.50;;
62709;SDS011;48770;51.624;5.886;2023-04-01T21:11:49;0.90;;;0.50;;
62709;SDS011;48770;51.624;5.886;2023-04-01T21:22:23;0.75;;;0.60;;
62709;SDS011;48770;51.624;5.886;2023-04-01T21:33:38;0.60;;;0.50;;
62709;SDS011;48770;51.624;5.886;2023-04-01T21:39:09;1.08;;;0.60;;
62709;SDS011;48770;51.624;5.886;2023-04-01T21:41:59;0.52;;;0.40;;
62709;SDS011;48770;51.624;5.886;2023-04-01T22:01:21;0.38;;;0.28;;
62709;SDS011;48770;51.624;5.886;2023-04-01T22:04:20;0.60;;;0.40;;
62709;SDS011;48770;51.624;5.886;2023-04-01T22:09:33;0.32;;;0.30;;
62709;SDS011;48770;51.624;5.886;2023-04-01T22:15:08;0.50;;;0.40;;
62709;SDS011;48770;51.624;5.886;2023-04-01T22:17:50;0.43;;;0.32;;
62709;SDS011;48770;51.624;5.886;2023-04-01T22:26:03;0.38;;;0.22;;
62709;SDS011;48770;51.624;5.886;2023-04-01T22:31:46;0.40;;;0.38;;
62709;SDS011;48770;51.624;5.886;2023-04-01T22:37:00;0.38;;;0.30;;
62709;SDS011;48770;51.624;5.886;2023-04-01T22:53:03;0.40;;;0.25;;
62709;SDS011;48770;51.624;5.886;2023-04-01T22:55:40;0.40;;;0.30;;
62709;SDS011;48770;51.624;5.886;2023-04-01T22:58:08;0.70;;;0.40;;
62709;SDS011;48770;51.624;5.886;2023-04-01T23:00:55;0.55;;;0.25;;
62709;SDS011;48770;51.624;5.886;2023-04-01T23:03:33;0.40;;;0.20;;
62709;SDS011;48770;51.624;5.886;2023-04-01T23:06:04;0.75;;;0.30;;
62709;SDS011;48770;51.624;5.886;2023-04-01T23:11:04;0.50;;;0.30;;
62709;SDS011;48770;51.624;5.886;2023-04-01T23:13:37;0.55;;;0.20;;
62709;SDS011;48770;51.624;5.886;2023-04-01T23:16:06;0.47;;;0.20;;
62709;SDS011;48770;51.624;5.886;2023-04-01T23:18:37;0.50;;;0.20;;
62709;SDS011;48770;51.624;5.886;2023-04-01T23:21:41;0.20;;;0.20;;
62709;SDS011;48770;51.624;5.886;2023-04-01T23:24:15;0.30;;;0.30;;
62709;SDS011;48770;51.624;5.886;2023-04-01T23:27:01;0.43;;;0.30;;
62709;SDS011;48770;51.624;5.886;2023-04-01T23:29:37;0.80;;;0.30;;
62709;SDS011;48770;51.624;5.886;2023-04-01T23:32:05;0.32;;;0.30;;
62709;SDS011;48770;51.624;5.886;2023-04-01T23:37:12;0.32;;;0.20;;
62709;SDS011;48770;51.624;5.886;2023-04-01T23:39:45;0.68;;;0.30;;
62709;SDS011;48770;51.624;5.886;2023-04-01T23:42:31;0.57;;;0.32;;
62709;SDS011;48770;51.624;5.886;2023-04-01T23:45:24;0.32;;;0.30;;
62709;SDS011;48770;51.624;5.886;2023-04-01T23:47:49;0.20;;;0.20;;
62709;SDS011;48770;51.624;5.886;2023-04-01T23:50:17;0.63;;;0.32;;
62709;SDS011;48770;51.624;5.886;2023-04-01T23:52:46;0.75;;;0.30;;
62709;SDS011;48770;51.624;5.886;2023-04-01T23:55:15;0.55;;;0.20;;
